createdAt,value
2022-11-03T00:01:03.578Z,98418.47
2022-11-03T00:03:29.936Z,98416.38
2022-11-03T00:06:05.371Z,98421.22
2022-11-03T00:08:31.671Z,98408.84
2022-11-03T00:11:04.988Z,98400.03
2022-11-03T00:13:31.313Z,98399.47
2022-11-03T00:15:57.631Z,98389.50
2022-11-03T00:18:24.011Z,98392.75
2022-11-03T00:20:57.161Z,98394.50
2022-11-03T00:23:24.662Z,98392.19
2022-11-03T00:25:50.969Z,98394.75
2022-11-03T00:28:17.318Z,98400.97
2022-11-03T00:30:43.698Z,98389.22
2022-11-03T00:33:10.057Z,98389.56
2022-11-03T00:35:36.377Z,98385.25
2022-11-03T00:38:02.707Z,98392.03
2022-11-03T00:40:29.028Z,98377.63
2022-11-03T00:42:55.343Z,98384.44
2022-11-03T00:45:21.680Z,98378.19
2022-11-03T00:48:23.493Z,98371.31
2022-11-03T00:50:49.815Z,98363.00
2022-11-03T00:53:16.147Z,98368.53
2022-11-03T00:55:42.529Z,98362.53
2022-11-03T00:58:08.835Z,98368.81
2022-11-03T01:00:35.163Z,98364.63
2022-11-03T01:03:01.470Z,98355.03
2022-11-03T01:05:46.674Z,98357.47
2022-11-03T01:08:13.014Z,98351.69
2022-11-03T01:10:59.319Z,98354.34
2022-11-03T01:13:25.660Z,98353.28
2022-11-03T01:15:51.987Z,98334.03
2022-11-03T01:18:18.484Z,98336.59
2022-11-03T01:20:44.802Z,98341.06
2022-11-03T01:23:11.125Z,98325.59
2022-11-03T01:25:37.456Z,98321.81
2022-11-03T01:30:31.067Z,98320.53
2022-11-03T01:32:57.391Z,98308.94
2022-11-03T01:35:23.706Z,98309.25
2022-11-03T01:37:50.076Z,98315.28
2022-11-03T01:40:16.903Z,98304.19
2022-11-03T01:42:43.218Z,98298.06
2022-11-03T01:45:09.576Z,98299.69
2022-11-03T01:47:36.027Z,98287.66
2022-11-03T01:50:09.711Z,98285.97
2022-11-03T01:52:47.117Z,98275.09
2022-11-03T01:55:14.012Z,98278.31
2022-11-03T01:57:41.513Z,98281.31
2022-11-03T02:00:08.165Z,98275.41
2022-11-03T02:02:34.522Z,98267.09
2022-11-03T02:05:00.999Z,98272.16
2022-11-03T02:07:39.521Z,98265.00
2022-11-03T02:10:06.154Z,98251.00
2022-11-03T02:12:32.483Z,98262.88
2022-11-03T02:15:00.330Z,98274.13
2022-11-03T02:17:27.472Z,98269.94
2022-11-03T02:20:00.949Z,98271.31
2022-11-03T02:22:27.235Z,98272.00
2022-11-03T02:25:04.905Z,98264.03
2022-11-03T02:27:31.229Z,98265.13
2022-11-03T02:29:58.907Z,98269.72
2022-11-03T02:32:26.821Z,98266.34
2022-11-03T02:35:00.580Z,98259.19
2022-11-03T02:37:30.493Z,98252.72
2022-11-03T02:39:57.396Z,98257.22
2022-11-03T02:42:23.733Z,98254.47
2022-11-03T02:44:50.085Z,98241.66
2022-11-03T02:47:16.782Z,98236.34
2022-11-03T02:49:49.827Z,98231.31
2022-11-03T02:52:35.421Z,98224.97
2022-11-03T02:55:02.895Z,98214.97
2022-11-03T02:57:29.879Z,98204.53
2022-11-03T03:00:01.278Z,98215.25
2022-11-03T03:02:32.403Z,98203.53
2022-11-03T03:04:59.270Z,98212.44
2022-11-03T03:07:27.006Z,98205.44
2022-11-03T03:09:57.976Z,98197.72
2022-11-03T03:12:24.524Z,98198.44
2022-11-03T03:14:50.978Z,98215.38
2022-11-03T03:17:23.346Z,98197.56
2022-11-03T03:19:55.692Z,98195.13
2022-11-03T03:22:31.111Z,98198.84
2022-11-03T03:25:03.715Z,98201.25
2022-11-03T03:27:30.217Z,98193.44
2022-11-03T03:29:57.589Z,98200.13
2022-11-03T03:32:24.353Z,98191.34
2022-11-03T03:34:50.819Z,98179.81
2022-11-03T03:37:17.689Z,98180.63
2022-11-03T03:39:46.090Z,98171.19
2022-11-03T03:42:12.409Z,98177.16
2022-11-03T03:44:38.815Z,98178.66
2022-11-03T03:47:07.305Z,98176.91
2022-11-03T03:49:33.697Z,98159.41
2022-11-03T03:52:00.026Z,98164.59
2022-11-03T03:54:26.364Z,98160.88
2022-11-03T03:57:03.118Z,98153.94
2022-11-03T03:59:29.470Z,98146.66
2022-11-03T04:01:55.912Z,98150.91
2022-11-03T04:04:22.395Z,98148.84
2022-11-03T04:06:48.883Z,98145.75
2022-11-03T04:09:15.225Z,98148.38
2022-11-03T04:12:00.220Z,98153.25
2022-11-03T04:14:45.144Z,98150.34
2022-11-03T04:17:38.066Z,98147.31
2022-11-03T04:20:23.124Z,98144.56
2022-11-03T04:22:49.443Z,98141.44
2022-11-03T04:25:15.803Z,98134.56
2022-11-03T04:27:42.214Z,98135.72
2022-11-03T04:30:16.340Z,98135.84
2022-11-03T04:32:46.605Z,98129.38
2022-11-03T04:35:16.478Z,98125.19
2022-11-03T04:37:46.542Z,98115.69
2022-11-03T04:40:17.232Z,98121.69
2022-11-03T04:42:44.206Z,98117.97
2022-11-03T04:45:14.559Z,98116.16
2022-11-03T04:47:40.895Z,98107.13
2022-11-03T04:50:09.641Z,98102.31
2022-11-03T04:52:35.959Z,98103.47
2022-11-03T04:55:02.305Z,98099.31
2022-11-03T04:57:28.628Z,98091.59
2022-11-03T04:59:54.984Z,98092.41
2022-11-03T05:02:21.378Z,98091.34
2022-11-03T05:04:47.707Z,98091.00
2022-11-03T05:07:23.035Z,98084.13
2022-11-03T05:09:49.565Z,98088.84
2022-11-03T05:12:16.205Z,98084.81
2022-11-03T05:14:42.539Z,98082.84
2022-11-03T05:17:17.818Z,98073.28
2022-11-03T05:19:44.166Z,98078.19
2022-11-03T05:22:15.739Z,98076.13
2022-11-03T05:24:42.628Z,98080.16
2022-11-03T05:27:11.425Z,98072.22
2022-11-03T05:29:38.938Z,98070.94
2022-11-03T05:32:10.408Z,98074.63
2022-11-03T05:34:43.536Z,98073.59
2022-11-03T05:37:26.141Z,98066.13
2022-11-03T05:39:54.326Z,98056.41
2022-11-03T05:42:24.497Z,98064.84
2022-11-03T05:44:51.385Z,98060.59
2022-11-03T05:47:50.322Z,98055.97
2022-11-03T05:50:18.788Z,98044.09
2022-11-03T05:52:45.662Z,98059.66
2022-11-03T05:55:26.078Z,98047.59
2022-11-03T05:57:53.201Z,98044.81
2022-11-03T06:00:29.609Z,98044.69
2022-11-03T06:02:56.942Z,98049.28
2022-11-03T06:05:26.887Z,98047.66
2022-11-03T06:07:53.620Z,98052.06
2022-11-03T06:10:20.004Z,98040.31
2022-11-03T06:12:46.318Z,98044.44
2022-11-03T06:15:19.748Z,98050.22
2022-11-03T06:17:46.412Z,98046.28
2022-11-03T06:20:16.302Z,98048.81
2022-11-03T06:22:43.026Z,98044.22
2022-11-03T06:25:15.871Z,98042.06
2022-11-03T06:27:42.472Z,98035.59
2022-11-03T06:30:15.003Z,98036.88
2022-11-03T06:32:41.315Z,98038.00
2022-11-03T06:35:08.631Z,98034.22
2022-11-03T06:37:35.965Z,98041.47
2022-11-03T06:40:03.386Z,98049.75
2022-11-03T06:42:32.265Z,98032.59
2022-11-03T06:44:58.707Z,98038.94
2022-11-03T06:47:28.475Z,98031.00
2022-11-03T06:50:01.106Z,98025.81
2022-11-03T06:52:31.095Z,98040.44
2022-11-03T06:55:02.208Z,98032.47
2022-11-03T06:57:28.925Z,98028.09
2022-11-03T07:00:06.771Z,98022.00
2022-11-03T07:03:02.040Z,98024.66
2022-11-03T07:05:29.018Z,98020.97
2022-11-03T07:08:00.745Z,98010.03
2022-11-03T07:10:27.918Z,98019.94
2022-11-03T07:12:54.487Z,98006.91
2022-11-03T07:15:23.239Z,98011.28
2022-11-03T07:17:49.569Z,98006.69
2022-11-03T07:20:16.662Z,98006.25
2022-11-03T07:22:43.281Z,98005.44
2022-11-03T07:25:13.997Z,98009.00
2022-11-03T07:27:40.317Z,98004.19
2022-11-03T07:30:22.695Z,97996.81
2022-11-03T07:32:49.661Z,97989.78
2022-11-03T07:35:29.454Z,97992.41
2022-11-03T07:38:09.142Z,97983.88
2022-11-03T07:40:35.709Z,97982.38
2022-11-03T07:43:08.568Z,97973.00
2022-11-03T07:45:45.138Z,97978.53
2022-11-03T07:48:24.251Z,97982.66
2022-11-03T07:50:51.549Z,97982.44
2022-11-03T07:53:37.306Z,97975.13
2022-11-03T07:56:12.878Z,97971.06
2022-11-03T07:58:39.599Z,97969.47
2022-11-03T08:01:25.028Z,97971.63
2022-11-03T08:03:51.521Z,97965.22
2022-11-03T08:06:19.977Z,97971.69
2022-11-03T08:08:46.588Z,97962.66
2022-11-03T08:13:40.197Z,97951.88
2022-11-03T08:16:06.614Z,97935.78
2022-11-03T08:18:32.936Z,97939.06
2022-11-03T08:20:59.296Z,97931.75
2022-11-03T08:23:26.521Z,97936.19
2022-11-03T08:25:53.148Z,97931.31
2022-11-03T08:28:19.512Z,97927.47
2022-11-03T08:30:45.909Z,97924.88
2022-11-03T08:33:12.230Z,97916.56
2022-11-03T08:35:38.650Z,97907.34
2022-11-03T08:38:05.346Z,97908.19
2022-11-03T08:40:31.920Z,97913.34
2022-11-03T08:42:58.386Z,97915.88
2022-11-03T08:45:24.765Z,97904.44
2022-11-03T08:47:52.721Z,97898.00
2022-11-03T08:50:19.114Z,97896.66
2022-11-03T08:52:45.479Z,97892.00
2022-11-03T08:55:11.827Z,97887.63
2022-11-03T08:57:38.148Z,97881.81
2022-11-03T09:00:05.886Z,97879.56
2022-11-03T09:02:32.351Z,97887.34
2022-11-03T09:04:59.046Z,97874.97
2022-11-03T09:07:25.552Z,97857.59
2022-11-03T09:10:20.376Z,97865.56
2022-11-03T09:12:48.694Z,97864.41
2022-11-03T09:15:15.035Z,97837.59
2022-11-03T09:17:43.295Z,97813.50
2022-11-03T09:20:12.025Z,97819.84
2022-11-03T09:22:38.395Z,97843.09
2022-11-03T09:25:05.037Z,97827.97
2022-11-03T09:27:31.771Z,97812.56
2022-11-03T09:30:12.797Z,97825.25
2022-11-03T09:32:39.907Z,97828.25
2022-11-03T09:35:06.467Z,97813.56
2022-11-03T09:37:32.811Z,97814.81
2022-11-03T09:39:59.183Z,97799.97
2022-11-03T09:42:25.518Z,97825.91
2022-11-03T09:44:52.437Z,97833.34
2022-11-03T09:47:29.397Z,97811.16
2022-11-03T09:49:55.737Z,97814.00
2022-11-03T09:52:23.017Z,97812.97
2022-11-03T09:54:49.508Z,97808.75
2022-11-03T09:57:16.021Z,97797.78
2022-11-03T09:59:46.207Z,97806.38
2022-11-03T10:02:19.475Z,97805.28
2022-11-03T10:04:45.862Z,97812.56
2022-11-03T10:07:12.254Z,97815.19
2022-11-03T10:09:39.305Z,97818.78
2022-11-03T10:12:05.835Z,97795.69
2022-11-03T10:14:32.165Z,97799.69
2022-11-03T10:17:00.349Z,97805.97
2022-11-03T10:19:26.897Z,97798.34
2022-11-03T10:21:53.277Z,97792.09
2022-11-03T10:24:19.596Z,97777.72
2022-11-03T10:26:46.879Z,97775.06
2022-11-03T10:31:51.861Z,97768.56
2022-11-03T10:34:24.276Z,97773.31
2022-11-03T10:36:51.075Z,97775.59
2022-11-03T10:39:24.767Z,97763.81
2022-11-03T10:41:58.521Z,97768.06
2022-11-03T10:44:26.041Z,97755.09
2022-11-03T10:46:59.554Z,97747.13
2022-11-03T10:49:25.958Z,97748.72
2022-11-03T10:51:52.883Z,97748.34
2022-11-03T10:54:20.014Z,97744.47
2022-11-03T10:56:46.410Z,97745.59
2022-11-03T10:59:16.723Z,97730.28
2022-11-03T11:01:43.158Z,97730.00
2022-11-03T11:04:11.030Z,97718.06
2022-11-03T11:06:37.642Z,97717.69
2022-11-03T11:09:04.379Z,97709.63
2022-11-03T11:11:30.722Z,97701.34
2022-11-03T11:14:15.871Z,97706.59
2022-11-03T11:16:52.131Z,97696.34
2022-11-03T11:19:18.702Z,97694.00
2022-11-03T11:21:45.364Z,97692.78
2022-11-03T11:24:11.680Z,97684.06
2022-11-03T11:26:38.725Z,97676.19
2022-11-03T11:29:11.597Z,97669.13
2022-11-03T11:31:44.413Z,97657.19
2022-11-03T11:34:10.723Z,97655.59
2022-11-03T11:36:37.563Z,97659.19
2022-11-03T11:39:04.344Z,97665.16
2022-11-03T11:41:49.522Z,97650.44
2022-11-03T11:44:35.006Z,97641.34
2022-11-03T11:47:01.405Z,97625.06
2022-11-03T11:49:27.764Z,97634.91
2022-11-03T11:51:54.649Z,97627.75
2022-11-03T11:54:21.041Z,97621.31
2022-11-03T11:56:47.621Z,97618.94
2022-11-03T11:59:25.555Z,97610.97
2022-11-03T12:01:52.607Z,97613.75
2022-11-03T12:04:20.595Z,97602.25
2022-11-03T12:06:47.651Z,97600.25
2022-11-03T12:09:20.988Z,97585.88
2022-11-03T12:11:55.501Z,97587.81
2022-11-03T12:14:29.070Z,97579.88
2022-11-03T12:16:55.735Z,97577.09
2022-11-03T12:19:37.830Z,97580.66
2022-11-03T12:22:05.053Z,97548.88
2022-11-03T12:24:31.335Z,97554.81
2022-11-03T12:26:57.978Z,97550.75
2022-11-03T12:29:24.347Z,97547.66
2022-11-03T12:31:50.686Z,97539.63
2022-11-03T12:34:17.131Z,97531.66
2022-11-03T12:36:43.845Z,97536.03
2022-11-03T12:39:10.305Z,97521.41
2022-11-03T12:41:36.660Z,97522.06
2022-11-03T12:44:03.101Z,97513.41
2022-11-03T12:46:29.481Z,97507.75
2022-11-03T12:48:55.800Z,97502.59
2022-11-03T12:51:22.952Z,97519.31
2022-11-03T12:53:49.527Z,97510.19
2022-11-03T12:56:16.385Z,97499.44
2022-11-03T12:58:42.777Z,97496.63
2022-11-03T13:01:09.260Z,97501.00
2022-11-03T13:03:35.711Z,97493.06
2022-11-03T13:06:04.424Z,97480.34
2022-11-03T13:08:31.211Z,97483.44
2022-11-03T13:10:57.609Z,97487.84
2022-11-03T13:13:23.953Z,97469.81
2022-11-03T13:15:50.275Z,97462.28
2022-11-03T13:18:16.635Z,97458.69
2022-11-03T13:20:44.898Z,97468.56
2022-11-03T13:23:11.323Z,97459.47
2022-11-03T13:25:37.895Z,97459.09
2022-11-03T13:28:04.949Z,97434.09
2022-11-03T13:30:31.310Z,97436.06
2022-11-03T13:32:57.635Z,97428.25
2022-11-03T13:35:23.980Z,97438.63
2022-11-03T13:37:50.349Z,97421.97
2022-11-03T13:40:50.331Z,97421.66
2022-11-03T13:43:03.074Z,97416.50
2022-11-03T13:45:29.402Z,97419.69
2022-11-03T13:50:42.238Z,97387.47
2022-11-03T13:55:57.522Z,97398.59
2022-11-03T14:01:13.574Z,97389.47
2022-11-03T14:06:26.465Z,97384.25
2022-11-03T14:08:53.174Z,97380.25
2022-11-03T14:11:38.476Z,97371.94
2022-11-03T14:14:06.405Z,97362.75
2022-11-03T14:16:33.466Z,97362.00
2022-11-03T14:19:00.084Z,97344.81
2022-11-03T14:21:26.466Z,97341.63
2022-11-03T14:23:52.778Z,97336.03
2022-11-03T14:26:40.209Z,97325.69
2022-11-03T14:29:06.485Z,97311.78
2022-11-03T14:31:32.832Z,97307.41
2022-11-03T14:33:59.158Z,97296.25
2022-11-03T14:36:25.515Z,97318.06
2022-11-03T14:38:52.093Z,97303.72
2022-11-03T14:41:44.746Z,97303.28
2022-11-03T14:44:11.144Z,97306.84
2022-11-03T14:46:37.618Z,97296.00
2022-11-03T14:49:03.979Z,97286.84
2022-11-03T14:51:31.271Z,97281.69
2022-11-03T14:53:59.398Z,97280.53
2022-11-03T14:56:25.807Z,97268.91
2022-11-03T14:58:53.088Z,97265.34
2022-11-03T15:01:19.758Z,97250.72
2022-11-03T15:03:46.303Z,97256.69
2022-11-03T15:06:12.694Z,97267.78
2022-11-03T15:08:39.045Z,97251.53
2022-11-03T15:11:07.749Z,97255.81
2022-11-03T15:13:39.548Z,97254.59
2022-11-03T15:16:10.544Z,97238.72
2022-11-03T15:18:36.862Z,97238.28
2022-11-03T15:21:03.208Z,97227.97
2022-11-03T15:26:16.037Z,97227.13
2022-11-03T15:28:42.597Z,97225.56
2022-11-03T15:31:08.955Z,97215.66
2022-11-03T15:33:35.362Z,97220.41
2022-11-03T15:36:01.839Z,97217.97
2022-11-03T15:38:28.200Z,97204.47
2022-11-03T15:41:14.515Z,97198.16
2022-11-03T15:43:47.974Z,97198.91
2022-11-03T15:46:14.651Z,97190.59
2022-11-03T15:48:41.040Z,97192.19
2022-11-03T15:51:07.449Z,97182.66
2022-11-03T15:53:33.778Z,97183.44
2022-11-03T15:56:00.233Z,97174.28
2022-11-03T15:58:26.559Z,97172.69
2022-11-03T16:00:52.960Z,97165.09
2022-11-03T16:03:19.370Z,97172.22
2022-11-03T16:05:45.735Z,97162.28
2022-11-03T16:08:12.290Z,97150.84
2022-11-03T16:10:39.909Z,97141.28
2022-11-03T16:13:08.717Z,97134.94
2022-11-03T16:15:35.100Z,97139.72
2022-11-03T16:18:02.717Z,97124.25
2022-11-03T16:20:32.198Z,97128.63
2022-11-03T16:22:58.548Z,97132.97
2022-11-03T16:25:25.174Z,97127.81
2022-11-03T16:27:51.848Z,97123.06
2022-11-03T16:30:18.187Z,97122.97
2022-11-03T16:32:44.617Z,97114.66
2022-11-03T16:35:12.033Z,97113.06
2022-11-03T16:37:38.438Z,97109.88
2022-11-03T16:40:05.378Z,97105.53
2022-11-03T16:42:38.169Z,97104.69
2022-11-03T16:45:05.977Z,97102.31
2022-11-03T16:47:33.058Z,97097.91
2022-11-03T16:50:00.564Z,97092.00
2022-11-03T16:52:27.923Z,97095.16
2022-11-03T16:54:54.589Z,97086.00
2022-11-03T16:57:21.286Z,97081.22
2022-11-03T16:59:47.647Z,97076.00
2022-11-03T17:02:16.505Z,97074.44
2022-11-03T17:04:43.740Z,97076.00
2022-11-03T17:07:10.763Z,97066.88
2022-11-03T17:09:37.499Z,97060.94
2022-11-03T17:12:04.324Z,97063.25
2022-11-03T17:14:31.691Z,97054.97
2022-11-03T17:16:59.242Z,97048.19
2022-11-03T17:19:26.817Z,97047.44
2022-11-03T17:21:56.382Z,97043.84
2022-11-03T17:24:22.697Z,97041.78
2022-11-03T17:26:56.610Z,97032.66
2022-11-03T17:29:23.817Z,97039.75
2022-11-03T17:31:50.217Z,97028.28
2022-11-03T17:34:16.649Z,97022.75
2022-11-03T17:36:42.999Z,97027.53
2022-11-03T17:39:10.276Z,97026.31
2022-11-03T17:41:37.411Z,97014.13
2022-11-03T17:44:06.077Z,97017.22
2022-11-03T17:46:32.648Z,97011.66
2022-11-03T17:49:00.709Z,97010.50
2022-11-03T17:51:27.049Z,97008.47
2022-11-03T17:53:53.379Z,97000.19
2022-11-03T17:56:34.951Z,97001.34
2022-11-03T17:59:02.059Z,96999.75
2022-11-03T18:01:28.977Z,97008.47
2022-11-03T18:04:00.210Z,97008.16
2022-11-03T18:06:26.660Z,97006.97
2022-11-03T18:08:54.062Z,96999.84
2022-11-03T18:11:43.497Z,96989.16
2022-11-03T18:14:09.837Z,96991.97
2022-11-03T18:16:36.763Z,96994.34
2022-11-03T18:19:03.176Z,96997.56
2022-11-03T18:21:29.884Z,96992.00
2022-11-03T18:23:56.657Z,96994.75
2022-11-03T18:26:23.638Z,96989.63
2022-11-03T18:28:52.588Z,96995.59
2022-11-03T18:31:49.932Z,96981.31
2022-11-03T18:34:18.122Z,96986.00
2022-11-03T18:36:46.333Z,96986.00
2022-11-03T18:39:15.405Z,96985.59
2022-11-03T18:41:44.100Z,96976.47
2022-11-03T18:44:20.431Z,96971.25
2022-11-03T18:46:47.387Z,96965.72
2022-11-03T18:49:13.956Z,96957.34
2022-11-03T18:51:41.609Z,96953.41
2022-11-03T18:54:09.018Z,96951.41
2022-11-03T18:56:38.142Z,96953.00
2022-11-03T18:59:05.389Z,96936.72
2022-11-03T19:01:34.453Z,96947.03
2022-11-03T19:04:00.961Z,96934.34
2022-11-03T19:06:27.854Z,96925.22
2022-11-03T19:08:58.215Z,96928.38
2022-11-03T19:11:24.642Z,96920.41
2022-11-03T19:13:50.962Z,96918.81
2022-11-03T19:16:20.193Z,96914.84
2022-11-03T19:18:46.599Z,96903.75
2022-11-03T19:21:15.339Z,96906.13
2022-11-03T19:23:47.618Z,96908.03
2022-11-03T19:26:15.996Z,96898.09
2022-11-03T19:28:42.330Z,96895.69
2022-11-03T19:31:11.907Z,96890.13
2022-11-03T19:33:38.240Z,96884.19
2022-11-03T19:36:07.785Z,96888.91
2022-11-03T19:38:35.954Z,96878.16
2022-11-03T19:41:20.774Z,96875.00
2022-11-03T19:43:47.094Z,96873.41
2022-11-03T19:46:16.400Z,96870.97
2022-11-03T19:48:44.255Z,96866.63
2022-11-03T19:51:12.867Z,96853.50
2022-11-03T19:53:43.174Z,96857.44
2022-11-03T19:56:16.697Z,96855.81
2022-11-03T19:58:43.163Z,96862.56
2022-11-03T20:01:09.543Z,96858.56
2022-11-03T20:03:36.079Z,96844.72
2022-11-03T20:06:02.477Z,96844.38
2022-11-03T20:08:30.089Z,96858.25
2022-11-03T20:10:56.627Z,96845.16
2022-11-03T20:13:23.514Z,96849.13
2022-11-03T20:15:57.361Z,96846.34
2022-11-03T20:18:25.685Z,96835.66
2022-11-03T20:20:52.303Z,96830.91
2022-11-03T20:23:23.302Z,96830.13
2022-11-03T20:25:49.623Z,96830.47
2022-11-03T20:28:21.400Z,96826.50
2022-11-03T20:30:49.270Z,96826.91
2022-11-03T20:33:16.149Z,96831.34
2022-11-03T20:35:42.632Z,96822.59
2022-11-03T20:38:09.889Z,96821.03
2022-11-03T20:40:36.514Z,96823.03
2022-11-03T20:43:03.076Z,96821.47
2022-11-03T20:45:30.213Z,96814.34
2022-11-03T20:47:59.498Z,96829.78
2022-11-03T20:50:26.099Z,96819.91
2022-11-03T20:52:52.764Z,96817.94
2022-11-03T20:55:24.200Z,96827.03
2022-11-03T20:57:52.341Z,96830.97
2022-11-03T21:00:21.520Z,96834.53
2022-11-03T21:02:48.486Z,96840.03
2022-11-03T21:05:17.830Z,96842.41
2022-11-03T21:07:44.422Z,96832.88
2022-11-03T21:10:13.707Z,96825.72
2022-11-03T21:12:43.888Z,96846.34
2022-11-03T21:16:18.296Z,96849.84
2022-11-03T21:18:56.126Z,96850.63
2022-11-03T21:21:22.424Z,96849.03
2022-11-03T21:23:48.921Z,96851.81
2022-11-03T21:26:15.488Z,96839.13
2022-11-03T21:28:41.868Z,96835.97
2022-11-03T21:31:12.246Z,96840.72
2022-11-03T21:33:38.556Z,96831.59
2022-11-03T21:36:05.086Z,96818.56
2022-11-03T21:38:33.215Z,96825.69
2022-11-03T21:41:19.717Z,96820.13
2022-11-03T21:44:04.633Z,96811.81
2022-11-03T21:46:31.358Z,96805.88
2022-11-03T21:49:20.692Z,96810.59
2022-11-03T21:51:47.811Z,96796.34
2022-11-03T21:54:14.478Z,96810.59
2022-11-03T21:56:41.031Z,96798.34
2022-11-03T21:59:07.446Z,96789.22
2022-11-03T22:01:34.923Z,96782.91
2022-11-03T22:04:02.126Z,96772.97
2022-11-03T22:06:28.440Z,96771.00
2022-11-03T22:08:56.965Z,96766.25
2022-11-03T22:11:23.361Z,96756.34
2022-11-03T22:13:50.379Z,96734.97
2022-11-03T22:16:36.382Z,96741.28
2022-11-03T22:19:31.153Z,96739.69
2022-11-03T22:22:18.161Z,96737.31
2022-11-03T22:25:03.382Z,96730.22
2022-11-03T22:27:30.276Z,96726.72
2022-11-03T22:30:15.489Z,96710.47
2022-11-03T22:32:42.028Z,96729.09
2022-11-03T22:35:30.292Z,96727.09
2022-11-03T22:38:07.173Z,96718.78
2022-11-03T22:40:52.388Z,96724.72
2022-11-03T22:43:37.580Z,96723.56
2022-11-03T22:46:06.802Z,96714.03
2022-11-03T22:48:33.184Z,96716.03
2022-11-03T22:51:15.499Z,96718.00
2022-11-03T22:54:00.791Z,96709.69
2022-11-03T22:56:28.344Z,96721.97
2022-11-03T22:58:55.279Z,96722.78
2022-11-03T23:01:22.760Z,96714.84
2022-11-03T23:03:49.289Z,96728.31
2022-11-03T23:06:17.635Z,96723.53
2022-11-03T23:08:45.527Z,96731.47
2022-11-03T23:11:16.082Z,96731.47
2022-11-03T23:13:47.621Z,96726.31
2022-11-03T23:16:18.375Z,96726.72
2022-11-03T23:19:03.141Z,96733.47
2022-11-03T23:21:29.870Z,96742.94
2022-11-03T23:24:15.006Z,96739.78
2022-11-03T23:26:44.085Z,96731.44
2022-11-03T23:29:10.872Z,96740.56
2022-11-03T23:31:37.966Z,96733.81
2022-11-03T23:34:04.734Z,96735.41
2022-11-03T23:36:32.662Z,96736.56
2022-11-03T23:38:59.477Z,96736.97
2022-11-03T23:41:26.082Z,96736.59
2022-11-03T23:43:52.775Z,96726.69
2022-11-03T23:46:39.999Z,96733.81
2022-11-03T23:51:48.675Z,96731.44
2022-11-03T23:54:16.944Z,96733.00
2022-11-03T23:57:03.758Z,96729.00
2022-11-03T23:59:31.096Z,96733.78
